createdAt,value
2023-04-26T00:02:18.638Z,5.50
2023-04-26T00:04:47.294Z,5.50
2023-04-26T00:07:15.788Z,5.50
2023-04-26T00:09:44.362Z,5.50
2023-04-26T00:12:11.965Z,5.50
2023-04-26T00:14:38.816Z,5.50
2023-04-26T00:17:05.593Z,5.50
2023-04-26T00:19:32.472Z,5.50
2023-04-26T00:21:59.186Z,5.60
2023-04-26T00:24:25.934Z,5.60
2023-04-26T00:26:55.849Z,5.60
2023-04-26T00:29:22.896Z,5.60
2023-04-26T00:31:49.896Z,5.70
2023-04-26T00:34:16.923Z,5.70
2023-04-26T00:36:43.731Z,5.70
2023-04-26T00:39:10.614Z,5.60
2023-04-26T00:41:37.482Z,5.60
2023-04-26T00:44:04.290Z,5.60
2023-04-26T00:46:31.472Z,5.60
2023-04-26T00:48:58.287Z,5.60
2023-04-26T00:51:25.060Z,5.60
2023-04-26T00:53:51.848Z,5.60
2023-04-26T00:56:18.955Z,5.60
2023-04-26T00:58:46.280Z,5.50
2023-04-26T01:01:13.431Z,5.50
2023-04-26T01:03:41.643Z,5.50
2023-04-26T01:06:08.518Z,5.50
2023-04-26T01:08:37.035Z,5.50
2023-04-26T01:11:04.379Z,5.40
2023-04-26T01:13:32.151Z,5.40
2023-04-26T01:15:59.274Z,5.40
2023-04-26T01:18:26.648Z,5.40
2023-04-26T01:20:54.000Z,5.30
2023-04-26T01:23:20.932Z,5.30
2023-04-26T01:25:47.987Z,5.30
2023-04-26T01:28:14.849Z,5.30
2023-04-26T01:30:41.611Z,5.30
2023-04-26T01:33:08.470Z,5.30
2023-04-26T01:35:35.527Z,5.30
2023-04-26T01:38:02.630Z,5.40
2023-04-26T01:40:29.361Z,5.40
2023-04-26T01:42:56.106Z,5.30
2023-04-26T01:45:22.797Z,5.30
2023-04-26T01:48:08.936Z,5.20
2023-04-26T01:50:35.760Z,5.30
2023-04-26T01:53:02.545Z,5.20
2023-04-26T01:55:29.314Z,5.20
2023-04-26T01:57:56.182Z,5.30
2023-04-26T02:00:22.931Z,5.30
2023-04-26T02:02:49.753Z,5.30
2023-04-26T02:05:16.592Z,5.30
2023-04-26T02:07:43.439Z,5.30
2023-04-26T02:10:10.477Z,5.30
2023-04-26T02:12:37.243Z,5.30
2023-04-26T02:15:04.787Z,5.30
2023-04-26T02:17:32.618Z,5.30
2023-04-26T02:19:59.377Z,5.30
2023-04-26T02:22:26.525Z,5.30
2023-04-26T02:24:53.355Z,5.30
2023-04-26T02:27:27.862Z,5.30
2023-04-26T02:29:54.788Z,5.30
2023-04-26T02:32:21.640Z,5.30
2023-04-26T02:34:49.630Z,5.30
2023-04-26T02:37:16.352Z,5.30
2023-04-26T02:39:43.081Z,5.30
2023-04-26T02:42:10.785Z,5.30
2023-04-26T02:44:39.454Z,5.30
2023-04-26T02:47:06.238Z,5.30
2023-04-26T02:49:33.062Z,5.30
2023-04-26T02:51:59.780Z,5.20
2023-04-26T02:54:26.599Z,5.30
2023-04-26T02:56:53.418Z,5.20
2023-04-26T02:59:21.486Z,5.20
2023-04-26T03:01:48.252Z,5.20
2023-04-26T03:04:16.067Z,5.20
2023-04-26T03:06:44.352Z,5.20
2023-04-26T03:09:11.408Z,5.20
2023-04-26T03:11:38.166Z,5.10
2023-04-26T03:14:04.912Z,5.10
2023-04-26T03:16:31.851Z,5.10
2023-04-26T03:18:58.690Z,5.10
2023-04-26T03:21:25.581Z,5.00
2023-04-26T03:23:52.507Z,5.00
2023-04-26T03:26:20.132Z,5.00
2023-04-26T03:28:47.331Z,5.00
2023-04-26T03:31:14.265Z,5.00
2023-04-26T03:33:41.245Z,4.90
2023-04-26T03:36:08.165Z,4.90
2023-04-26T03:38:35.350Z,4.90
2023-04-26T03:41:02.246Z,4.90
2023-04-26T03:43:29.781Z,4.90
2023-04-26T03:45:56.543Z,4.90
2023-04-26T03:48:23.379Z,4.90
2023-04-26T03:50:50.415Z,4.90
2023-04-26T03:53:17.732Z,4.90
2023-04-26T03:55:45.009Z,4.90
2023-04-26T03:58:12.504Z,4.90
2023-04-26T04:00:39.444Z,4.90
2023-04-26T04:03:06.799Z,4.90
2023-04-26T04:05:34.166Z,4.90
2023-04-26T04:08:01.750Z,4.80
2023-04-26T04:10:28.833Z,4.80
2023-04-26T04:12:56.894Z,4.90
2023-04-26T04:15:23.827Z,4.80
2023-04-26T04:17:51.075Z,4.80
2023-04-26T04:20:18.061Z,4.80
2023-04-26T04:22:45.044Z,4.80
2023-04-26T04:25:24.746Z,4.80
2023-04-26T04:28:12.050Z,4.80
2023-04-26T04:30:38.945Z,4.80
2023-04-26T04:33:05.857Z,4.80
2023-04-26T04:35:34.423Z,4.70
2023-04-26T04:38:04.345Z,4.70
2023-04-26T04:40:32.081Z,4.70
2023-04-26T04:43:01.058Z,4.70
2023-04-26T04:45:28.833Z,4.80
2023-04-26T04:47:57.373Z,4.80
2023-04-26T04:50:26.359Z,4.80
2023-04-26T04:52:53.146Z,4.80
2023-04-26T04:55:19.952Z,4.90
2023-04-26T04:57:46.718Z,4.90
2023-04-26T05:00:14.174Z,4.90
2023-04-26T05:02:46.841Z,5.00
2023-04-26T05:05:13.830Z,5.00
2023-04-26T05:07:40.875Z,5.00
2023-04-26T05:10:08.248Z,5.00
2023-04-26T05:12:36.742Z,5.00
2023-04-26T05:15:04.412Z,5.10
2023-04-26T05:17:32.865Z,5.00
2023-04-26T05:20:07.362Z,5.00
2023-04-26T05:22:36.632Z,5.00
2023-04-26T05:25:05.138Z,5.10
2023-04-26T05:27:32.582Z,5.10
2023-04-26T05:30:16.713Z,5.10
2023-04-26T05:32:56.816Z,5.20
2023-04-26T05:35:57.903Z,5.20
2023-04-26T05:38:25.161Z,5.30
2023-04-26T05:40:52.298Z,5.30
2023-04-26T05:43:23.560Z,5.30
2023-04-26T05:45:54.286Z,5.40
2023-04-26T05:48:21.687Z,5.40
2023-04-26T05:50:48.801Z,5.50
2023-04-26T05:53:15.917Z,5.50
2023-04-26T05:55:42.918Z,5.60
2023-04-26T05:58:10.282Z,5.60
2023-04-26T06:00:38.600Z,5.70
2023-04-26T06:03:09.418Z,5.70
2023-04-26T06:05:41.669Z,5.80
2023-04-26T06:08:09.255Z,5.80
2023-04-26T06:10:36.504Z,5.90
2023-04-26T06:13:03.978Z,5.90
2023-04-26T06:15:36.570Z,5.90
2023-04-26T06:18:04.742Z,6.00
2023-04-26T06:20:32.077Z,6.00
2023-04-26T06:22:58.879Z,6.00
2023-04-26T06:25:25.747Z,6.00
2023-04-26T06:27:55.108Z,6.00
2023-04-26T06:30:27.785Z,6.00
2023-04-26T06:32:54.798Z,6.10
2023-04-26T06:35:23.313Z,6.10
2023-04-26T06:37:50.448Z,6.10
2023-04-26T06:40:17.572Z,6.10
2023-04-26T06:42:44.553Z,6.20
2023-04-26T06:45:17.130Z,6.20
2023-04-26T06:47:45.301Z,6.20
2023-04-26T06:50:12.884Z,6.20
2023-04-26T06:52:39.631Z,6.20
2023-04-26T06:55:07.093Z,6.30
2023-04-26T06:57:33.824Z,6.30
2023-04-26T07:00:00.587Z,6.30
2023-04-26T07:02:27.545Z,6.30
2023-04-26T07:04:54.597Z,6.40
2023-04-26T07:07:21.960Z,6.40
2023-04-26T07:09:48.735Z,6.50
2023-04-26T07:12:15.645Z,6.50
2023-04-26T07:14:43.599Z,6.60
2023-04-26T07:17:10.652Z,6.60
2023-04-26T07:19:37.544Z,6.60
2023-04-26T07:22:04.778Z,6.60
2023-04-26T07:24:31.558Z,6.70
2023-04-26T07:26:58.431Z,6.70
2023-04-26T07:29:25.175Z,6.80
2023-04-26T07:31:53.999Z,6.80
2023-04-26T07:34:20.752Z,6.90
2023-04-26T07:36:47.823Z,6.90
2023-04-26T07:39:15.457Z,6.90
2023-04-26T07:41:44.018Z,7.00
2023-04-26T07:44:11.478Z,7.10
2023-04-26T07:46:38.308Z,7.20
2023-04-26T07:49:05.214Z,7.10
2023-04-26T07:51:32.091Z,7.10
2023-04-26T07:53:58.936Z,6.90
2023-04-26T07:56:25.752Z,6.70
2023-04-26T07:58:52.636Z,6.60
2023-04-26T08:01:19.620Z,6.60
2023-04-26T08:03:47.539Z,6.60
2023-04-26T08:06:14.801Z,6.50
2023-04-26T08:08:44.926Z,6.50
2023-04-26T08:11:11.768Z,6.40
2023-04-26T08:13:38.881Z,6.40
2023-04-26T08:16:06.015Z,6.50
2023-04-26T08:18:33.311Z,6.60
2023-04-26T08:21:00.081Z,6.60
2023-04-26T08:23:26.823Z,6.60
2023-04-26T08:25:53.540Z,6.60
2023-04-26T08:28:20.320Z,6.70
2023-04-26T08:30:47.161Z,6.70
2023-04-26T08:33:13.923Z,6.70
2023-04-26T08:35:41.225Z,6.80
2023-04-26T08:38:08.456Z,6.80
2023-04-26T08:40:36.207Z,6.80
2023-04-26T08:43:03.064Z,6.90
2023-04-26T08:45:30.727Z,6.90
2023-04-26T08:48:04.343Z,6.90
2023-04-26T08:50:33.623Z,6.90
2023-04-26T08:53:00.379Z,7.00
2023-04-26T08:55:27.413Z,7.00
2023-04-26T08:57:54.985Z,7.10
2023-04-26T09:00:23.117Z,7.20
2023-04-26T09:02:51.375Z,7.30
2023-04-26T09:05:23.557Z,7.30
2023-04-26T09:07:51.198Z,7.30
2023-04-26T09:10:22.346Z,7.30
2023-04-26T09:12:52.894Z,7.40
2023-04-26T09:15:21.296Z,7.40
2023-04-26T09:17:49.642Z,7.30
2023-04-26T09:20:19.914Z,7.30
2023-04-26T09:22:47.154Z,7.20
2023-04-26T09:25:15.912Z,7.20
2023-04-26T09:27:46.031Z,7.20
2023-04-26T09:30:15.194Z,7.20
2023-04-26T09:32:45.177Z,7.20
2023-04-26T09:35:41.758Z,7.30
2023-04-26T09:38:12.705Z,7.40
2023-04-26T09:40:41.267Z,7.50
2023-04-26T09:43:09.043Z,7.60
2023-04-26T09:45:49.073Z,7.70
2023-04-26T09:48:16.838Z,7.70
2023-04-26T09:50:45.460Z,7.60
2023-04-26T09:53:24.467Z,7.40
2023-04-26T09:55:51.266Z,7.40
2023-04-26T09:58:18.267Z,7.30
2023-04-26T10:00:45.977Z,7.40
2023-04-26T10:03:13.094Z,7.40
2023-04-26T10:05:39.936Z,7.40
2023-04-26T10:08:07.281Z,7.50
2023-04-26T10:10:34.412Z,7.50
2023-04-26T10:13:01.571Z,7.50
2023-04-26T10:15:29.086Z,7.60
2023-04-26T10:17:55.826Z,7.60
2023-04-26T10:20:24.027Z,7.60
2023-04-26T10:23:01.010Z,7.70
2023-04-26T10:25:37.852Z,7.80
2023-04-26T10:28:05.266Z,7.90
2023-04-26T10:30:32.395Z,8.00
2023-04-26T10:32:59.175Z,8.10
2023-04-26T10:35:26.969Z,8.20
2023-04-26T10:37:59.827Z,8.40
2023-04-26T10:40:27.282Z,8.40
2023-04-26T10:43:24.318Z,8.30
2023-04-26T10:45:51.463Z,8.30
2023-04-26T10:48:19.935Z,8.20
2023-04-26T10:51:02.414Z,8.10
2023-04-26T10:53:33.217Z,8.10
2023-04-26T10:55:59.986Z,8.10
2023-04-26T10:58:31.135Z,8.10
2023-04-26T11:01:08.433Z,8.10
2023-04-26T11:03:36.037Z,8.10
2023-04-26T11:06:07.433Z,8.20
2023-04-26T11:08:36.429Z,8.20
2023-04-26T11:11:03.213Z,8.30
2023-04-26T11:13:33.986Z,8.30
2023-04-26T11:16:05.011Z,8.40
2023-04-26T11:18:32.275Z,8.50
2023-04-26T11:20:59.535Z,8.60
2023-04-26T11:23:28.200Z,8.70
2023-04-26T11:26:05.298Z,8.80
2023-04-26T11:28:34.260Z,8.90
2023-04-26T11:31:01.979Z,8.90
2023-04-26T11:33:28.762Z,8.80
2023-04-26T11:35:58.606Z,8.80
2023-04-26T11:38:25.829Z,8.80
2023-04-26T11:41:18.919Z,8.80
2023-04-26T11:43:48.173Z,8.80
2023-04-26T11:46:15.104Z,8.70
2023-04-26T11:48:42.360Z,8.70
2023-04-26T11:51:10.470Z,8.70
2023-04-26T11:53:43.564Z,8.80
2023-04-26T11:56:15.465Z,8.80
2023-04-26T11:58:48.954Z,8.90
2023-04-26T12:01:33.899Z,8.90
2023-04-26T12:04:01.128Z,8.90
2023-04-26T12:06:44.560Z,8.90
2023-04-26T12:09:11.729Z,8.90
2023-04-26T12:11:38.784Z,8.90
2023-04-26T12:14:05.957Z,9.00
2023-04-26T12:16:34.690Z,9.00
2023-04-26T12:19:04.881Z,8.90
2023-04-26T12:21:39.947Z,8.80
2023-04-26T12:24:06.800Z,8.90
2023-04-26T12:26:41.818Z,8.90
2023-04-26T12:29:08.903Z,8.80
2023-04-26T12:31:35.822Z,8.70
2023-04-26T12:34:02.660Z,8.70
2023-04-26T12:36:29.395Z,8.70
2023-04-26T12:38:57.773Z,8.60
2023-04-26T12:41:24.548Z,8.70
2023-04-26T12:43:51.377Z,8.70
2023-04-26T12:46:18.155Z,8.70
2023-04-26T12:48:45.450Z,8.80
2023-04-26T12:51:12.213Z,8.90
2023-04-26T12:53:39.053Z,8.90
2023-04-26T12:56:06.091Z,9.00
2023-04-26T12:58:32.834Z,9.10
2023-04-26T13:00:59.718Z,9.20
2023-04-26T13:03:26.634Z,9.20
2023-04-26T13:05:54.700Z,9.30
2023-04-26T13:08:22.632Z,9.30
2023-04-26T13:10:49.406Z,9.40
2023-04-26T13:13:16.354Z,9.40
2023-04-26T13:15:43.190Z,9.40
2023-04-26T13:18:09.959Z,9.40
2023-04-26T13:20:38.320Z,9.50
2023-04-26T13:23:05.160Z,9.50
2023-04-26T13:25:31.917Z,9.60
2023-04-26T13:27:58.739Z,9.60
2023-04-26T13:30:25.782Z,9.70
2023-04-26T13:32:52.764Z,9.70
2023-04-26T13:35:19.671Z,9.70
2023-04-26T13:37:46.614Z,9.60
2023-04-26T13:40:13.489Z,9.60
2023-04-26T13:42:40.699Z,9.60
2023-04-26T13:45:09.943Z,9.60
2023-04-26T13:47:37.589Z,9.50
2023-04-26T13:50:04.733Z,9.50
2023-04-26T13:52:31.497Z,9.40
2023-04-26T13:54:58.258Z,9.40
2023-04-26T13:57:25.184Z,9.40
2023-04-26T13:59:51.945Z,9.40
2023-04-26T14:02:19.473Z,9.40
2023-04-26T14:04:46.507Z,9.50
2023-04-26T14:07:13.519Z,9.50
2023-04-26T14:09:40.374Z,9.50
2023-04-26T14:12:08.937Z,9.50
2023-04-26T14:14:36.497Z,9.50
2023-04-26T14:17:03.587Z,9.50
2023-04-26T14:19:31.591Z,9.60
2023-04-26T14:21:58.513Z,9.60
2023-04-26T14:24:25.486Z,9.60
2023-04-26T14:26:52.269Z,9.60
2023-04-26T14:29:19.122Z,9.60
2023-04-26T14:31:46.256Z,9.70
2023-04-26T14:34:13.460Z,9.70
2023-04-26T14:36:40.604Z,9.70
2023-04-26T14:39:07.740Z,9.50
2023-04-26T14:41:34.610Z,9.50
2023-04-26T14:44:01.474Z,9.50
2023-04-26T14:46:28.450Z,9.50
2023-04-26T14:48:55.467Z,9.40
2023-04-26T14:51:22.319Z,9.50
2023-04-26T14:53:49.020Z,9.40
2023-04-26T14:56:15.770Z,9.40
2023-04-26T14:58:42.519Z,9.40
2023-04-26T15:01:09.297Z,9.40
2023-04-26T15:03:36.502Z,9.50
2023-04-26T15:06:03.523Z,9.50
2023-04-26T15:08:30.350Z,9.50
2023-04-26T15:10:57.115Z,9.50
2023-04-26T15:13:23.876Z,9.60
2023-04-26T15:15:50.970Z,9.60
2023-04-26T15:18:17.821Z,9.60
2023-04-26T15:20:44.874Z,9.50
2023-04-26T15:23:11.701Z,9.50
2023-04-26T15:25:38.559Z,9.50
2023-04-26T15:28:05.764Z,9.50
2023-04-26T15:30:32.581Z,9.40
2023-04-26T15:33:00.402Z,9.50
2023-04-26T15:35:27.320Z,9.50
2023-04-26T15:37:54.155Z,9.50
2023-04-26T15:40:21.517Z,9.60
2023-04-26T15:42:49.226Z,9.70
2023-04-26T15:45:16.262Z,9.70
2023-04-26T15:47:43.391Z,9.70
2023-04-26T15:50:10.461Z,9.70
2023-04-26T15:52:39.255Z,9.60
2023-04-26T15:55:07.382Z,9.60
2023-04-26T15:57:34.739Z,9.60
2023-04-26T16:00:01.853Z,9.60
2023-04-26T16:02:31.403Z,9.60
2023-04-26T16:04:58.398Z,9.50
2023-04-26T16:07:25.476Z,9.50
2023-04-26T16:09:52.687Z,9.40
2023-04-26T16:12:19.415Z,9.40
2023-04-26T16:14:46.594Z,9.40
2023-04-26T16:17:22.561Z,9.40
2023-04-26T16:19:52.028Z,9.40
2023-04-26T16:22:18.800Z,9.40
2023-04-26T16:24:45.826Z,9.40
2023-04-26T16:27:12.876Z,9.40
2023-04-26T16:29:39.684Z,9.30
2023-04-26T16:32:06.631Z,9.30
2023-04-26T16:34:33.413Z,9.30
2023-04-26T16:37:00.247Z,9.30
2023-04-26T16:39:28.319Z,9.30
2023-04-26T16:41:55.034Z,9.30
2023-04-26T16:44:21.792Z,9.30
2023-04-26T16:46:48.584Z,9.30
2023-04-26T16:49:15.818Z,9.30
2023-04-26T16:51:44.384Z,9.30
2023-04-26T16:54:11.378Z,9.30
2023-04-26T16:56:38.062Z,9.40
2023-04-26T16:59:04.871Z,9.30
2023-04-26T17:01:31.926Z,9.30
2023-04-26T17:03:58.799Z,9.20
2023-04-26T17:06:25.712Z,9.20
2023-04-26T17:08:52.832Z,9.10
2023-04-26T17:11:19.631Z,9.10
2023-04-26T17:13:46.450Z,9.10
2023-04-26T17:16:13.278Z,9.00
2023-04-26T17:18:40.127Z,9.00
2023-04-26T17:21:07.139Z,9.00
2023-04-26T17:23:34.230Z,8.90
2023-04-26T17:26:01.511Z,8.90
2023-04-26T17:28:29.407Z,8.90
2023-04-26T17:30:56.291Z,8.90
2023-04-26T17:33:23.407Z,8.80
2023-04-26T17:35:50.389Z,8.80
2023-04-26T17:38:17.230Z,8.80
2023-04-26T17:40:44.179Z,8.80
2023-04-26T17:43:11.408Z,8.80
2023-04-26T17:45:38.342Z,8.80
2023-04-26T17:48:05.710Z,8.70
2023-04-26T17:50:33.118Z,8.70
2023-04-26T17:52:59.896Z,8.70
2023-04-26T17:55:26.949Z,8.60
2023-04-26T17:57:53.719Z,8.60
2023-04-26T18:00:20.544Z,8.60
2023-04-26T18:02:48.912Z,8.60
2023-04-26T18:05:16.422Z,8.50
2023-04-26T18:07:43.206Z,8.50
2023-04-26T18:10:10.430Z,8.50
2023-04-26T18:12:39.830Z,8.40
2023-04-26T18:15:07.628Z,8.40
2023-04-26T18:17:34.480Z,8.40
2023-04-26T18:20:01.455Z,8.30
2023-04-26T18:22:28.226Z,8.40
2023-04-26T18:24:55.021Z,8.30
2023-04-26T18:27:23.503Z,8.30
2023-04-26T18:29:50.681Z,8.30
2023-04-26T18:32:17.548Z,8.20
2023-04-26T18:34:44.616Z,8.20
2023-04-26T18:37:11.486Z,8.20
2023-04-26T18:39:38.511Z,8.20
2023-04-26T18:42:05.476Z,8.20
2023-04-26T18:44:32.276Z,8.10
2023-04-26T18:46:59.377Z,8.10
2023-04-26T18:49:29.272Z,8.10
2023-04-26T18:51:57.169Z,8.00
2023-04-26T18:54:24.049Z,8.00
2023-04-26T18:56:50.951Z,8.00
2023-04-26T18:59:17.849Z,8.00
2023-04-26T19:01:44.669Z,7.90
2023-04-26T19:04:11.860Z,7.90
2023-04-26T19:06:40.398Z,7.90
2023-04-26T19:09:11.236Z,7.90
2023-04-26T19:11:38.063Z,7.80
2023-04-26T19:14:04.850Z,7.80
2023-04-26T19:16:32.115Z,7.70
2023-04-26T19:18:59.356Z,7.70
2023-04-26T19:21:26.758Z,7.70
2023-04-26T19:23:53.565Z,7.60
2023-04-26T19:26:20.492Z,7.50
2023-04-26T19:28:47.441Z,7.50
2023-04-26T19:31:14.361Z,7.50
2023-04-26T19:33:41.475Z,7.50
2023-04-26T19:36:09.126Z,7.50
2023-04-26T19:38:35.988Z,7.50
2023-04-26T19:41:02.928Z,7.50
2023-04-26T19:43:29.818Z,7.40
2023-04-26T19:45:56.657Z,7.40
2023-04-26T19:48:23.491Z,7.30
2023-04-26T19:50:50.452Z,7.30
2023-04-26T19:53:17.475Z,7.30
2023-04-26T19:55:44.934Z,7.20
2023-04-26T19:58:12.523Z,7.20
2023-04-26T20:00:42.001Z,7.20
2023-04-26T20:03:09.251Z,7.10
2023-04-26T20:05:37.031Z,7.10
2023-04-26T20:08:04.878Z,7.10
2023-04-26T20:10:34.083Z,7.00
2023-04-26T20:13:02.857Z,7.00
2023-04-26T20:15:33.025Z,7.00
2023-04-26T20:18:02.539Z,7.00
2023-04-26T20:20:29.520Z,6.90
2023-04-26T20:22:56.501Z,6.90
2023-04-26T20:25:29.086Z,6.90
2023-04-26T20:27:56.679Z,6.80
2023-04-26T20:30:23.510Z,6.80
2023-04-26T20:32:56.403Z,6.80
2023-04-26T20:35:33.026Z,6.80
2023-04-26T20:38:06.541Z,6.80
2023-04-26T20:40:40.397Z,6.80
2023-04-26T20:43:16.054Z,6.80
2023-04-26T20:45:51.431Z,6.80
2023-04-26T20:51:08.375Z,6.80
2023-04-26T20:53:53.156Z,6.80
2023-04-26T20:56:24.515Z,6.80
2023-04-26T20:58:51.718Z,6.70
2023-04-26T21:01:18.571Z,6.70
2023-04-26T21:04:06.554Z,6.70
2023-04-26T21:06:33.603Z,6.60
2023-04-26T21:09:00.391Z,6.60
2023-04-26T21:11:27.306Z,6.60
2023-04-26T21:14:04.379Z,6.60
2023-04-26T21:16:31.138Z,6.60
2023-04-26T21:18:57.858Z,6.60
2023-04-26T21:21:25.902Z,6.60
2023-04-26T21:23:54.529Z,6.50
2023-04-26T21:26:21.373Z,6.50
2023-04-26T21:28:48.142Z,6.40
2023-04-26T21:31:25.751Z,6.40
2023-04-26T21:33:53.251Z,6.40
2023-04-26T21:36:20.246Z,6.40
2023-04-26T21:38:46.985Z,6.30
2023-04-26T21:41:29.247Z,6.30
2023-04-26T21:46:37.787Z,6.20
2023-04-26T21:49:04.599Z,6.20
2023-04-26T21:51:31.389Z,6.20
2023-04-26T21:54:04.494Z,6.20
2023-04-26T21:56:31.241Z,6.10
2023-04-26T21:59:23.494Z,6.10
2023-04-26T22:01:50.979Z,6.10
2023-04-26T22:04:17.901Z,6.00
2023-04-26T22:06:44.921Z,6.00
2023-04-26T22:09:11.866Z,5.90
2023-04-26T22:11:38.896Z,5.90
2023-04-26T22:14:05.671Z,5.90
2023-04-26T22:16:32.437Z,5.90
2023-04-26T22:18:59.264Z,5.80
2023-04-26T22:21:26.932Z,5.80
2023-04-26T22:23:53.666Z,5.80
2023-04-26T22:26:21.211Z,5.70
2023-04-26T22:28:47.926Z,5.70
2023-04-26T22:31:14.648Z,5.70
2023-04-26T22:33:41.465Z,5.70
2023-04-26T22:36:08.783Z,5.60
2023-04-26T22:38:35.720Z,5.60
2023-04-26T22:41:02.408Z,5.60
2023-04-26T22:43:29.107Z,5.60
2023-04-26T22:45:55.859Z,5.60
2023-04-26T22:48:22.660Z,5.60
2023-04-26T22:50:52.371Z,5.60
2023-04-26T22:53:19.342Z,5.50
2023-04-26T22:55:46.220Z,5.50
2023-04-26T22:58:13.118Z,5.50
2023-04-26T23:00:39.887Z,5.50
2023-04-26T23:03:06.757Z,5.50
2023-04-26T23:05:33.548Z,5.60
2023-04-26T23:08:00.256Z,5.60
2023-04-26T23:10:27.263Z,5.60
2023-04-26T23:12:55.212Z,5.60
2023-04-26T23:15:21.920Z,5.60
2023-04-26T23:17:48.722Z,5.60
2023-04-26T23:20:15.883Z,5.60
2023-04-26T23:22:42.905Z,5.60
2023-04-26T23:25:09.905Z,5.60
2023-04-26T23:27:37.081Z,5.60
2023-04-26T23:30:04.622Z,5.60
2023-04-26T23:32:31.491Z,5.60
2023-04-26T23:34:58.269Z,5.50
2023-04-26T23:37:25.000Z,5.50
2023-04-26T23:39:52.069Z,5.50
2023-04-26T23:42:18.828Z,5.50
2023-04-26T23:44:45.701Z,5.50
2023-04-26T23:47:12.415Z,5.50
2023-04-26T23:49:39.221Z,5.50
2023-04-26T23:52:06.101Z,5.40
2023-04-26T23:54:32.995Z,5.40
2023-04-26T23:56:59.780Z,5.40
2023-04-26T23:59:26.498Z,5.40
